Aérodrome :
LOGIN :

S'inscrire | Disclaimer

   EN    FR    IT 

 










Légende :    VFR   VFR Marginal   IFR   IFR Intensif   IFR Très Intensif
Visi : 
Plafond : 
>= 8 km
>= 3000ft
5 à 8 km
1000 à 3000 ft
1500m à 5 km
500 à 1000 ft
800 à 1500m
200 à 500 ft
< 800m
< 200 ft
Symboles :   Orages  Brouillard  Fortes neiges  Fortes précipitations  Vent > 20 kt
SIGMETs :   Divers  Orages  Givrage  Turbulence  Onde Orograph.  Cendres Volcan.






- Altitude de l'aérodrome : 646 ft
- Code IATA : VNO


EYVI - Vilnius int.

DERNIER METAR :
  • 222250Z 14013KT CAVOK M04/M14 Q1028 R19/0///95 NOSIG

METARs EXPIRÉS :
  • 222220Z 14014KT CAVOK M04/M14 Q1028 R19/0///95 NOSIG
  • 222150Z 15012KT CAVOK M04/M13 Q1029 R19/0///95 NOSIG
  • 222120Z 15012KT CAVOK M04/M13 Q1029 R19/0///95 NOSIG
  • 222050Z 15014KT CAVOK M04/M13 Q1029 R19/0///95 NOSIG
  • 222020Z 15015KT CAVOK M03/M14 Q1029 R19/0///95 NOSIG

TAF TAF EYVI
Valide du 22 à 18h jusqu'au 23 à 18h UTC


221700Z 2218/2318 14014KT 9000 NSC



MET'MAP, la Météo Aéronautique d'un coup d'oeil ! - Copyright ORBIFLY Décembre 2007 - Disclaimer

ORBIFLY MET'MAP TEAM :

Programmation & Développement : Alexandra Zaïnal
Conception & Développement : Baudouin d'Aumeries
Co-Programmation & Développement : Marc-Olivier Méhu
Soutien technique & logistique : Manuel Goepfert

Contact : metmap@orbifly.com




SOURCES & CREDITS :

   NOAA